Greenfield Park, New York
Current Conditions -  °F | °C
As of 7:35 AM on Thursday 18 Dec 2014 (Local Time) from KMSV Reporting Station
Overcast Overcast  
Wind Chill: 20°   Ceiling: 2100
Heat Index: 30°   Visibility: 10mi
Dew Point: 23°   Wind: 13mph
Humidity: 75%   Direction: 300°WNW
Pressure: 29.92"   Gusts: 21mph
Location:  41.73°N, 74.49°W
Report Text: KMSV 181235Z 30011G18KT 10SM OVC021 M01/M05 A2992 RMK AO1 70007
Loading
Personal Weather Stations






























Interactive Weather Map New forecast layout! Learn more

10-Day Weather Forecast

Advertisements
Track Severe Weather on mobile